sensor_id;sensor_type;location;lat;lon;timestamp;pressure;altitude;pressure_sealevel;temperature;humidity
55317;BME280;41178;48.956;8.130;2024-02-23T00:02:51;97966.28;;;8.37;46.94
55317;BME280;41178;48.956;8.130;2024-02-23T00:07:52;98112.25;;;8.35;46.24
55317;BME280;41178;48.956;8.130;2024-02-23T00:12:54;97902.91;;;9.88;45.26
55317;BME280;41178;48.956;8.130;2024-02-23T00:17:56;98068.97;;;8.46;46.87
55317;BME280;41178;48.956;8.130;2024-02-23T00:22:58;97987.19;;;9.03;46.17
55317;BME280;41178;48.956;8.130;2024-02-23T00:28:00;98034.78;;;9.32;45.14
55317;BME280;41178;48.956;8.130;2024-02-23T00:33:01;97993.19;;;9.61;44.61
55317;BME280;41178;48.956;8.130;2024-02-23T00:38:03;98125.00;;;8.26;46.22
55317;BME280;41178;48.956;8.130;2024-02-23T00:43:05;98085.78;;;8.40;45.65
55317;BME280;41178;48.956;8.130;2024-02-23T00:48:07;97997.47;;;9.00;45.06
55317;BME280;41178;48.956;8.130;2024-02-23T00:53:09;98033.16;;;9.49;44.30
55317;BME280;41178;48.956;8.130;2024-02-23T00:58:11;97983.97;;;9.20;44.96
55317;BME280;41178;48.956;8.130;2024-02-23T01:03:12;98048.03;;;8.88;45.24
55317;BME280;41178;48.956;8.130;2024-02-23T01:08:14;98103.75;;;9.03;44.96
55317;BME280;41178;48.956;8.130;2024-02-23T01:13:16;98159.09;;;7.90;46.32
55317;BME280;41178;48.956;8.130;2024-02-23T01:18:18;97936.47;;;9.84;44.47
55317;BME280;41178;48.956;8.130;2024-02-23T01:23:20;98131.78;;;8.74;44.91
55317;BME280;41178;48.956;8.130;2024-02-23T01:28:22;97950.47;;;9.61;44.78
55317;BME280;41178;48.956;8.130;2024-02-23T01:33:23;98121.22;;;8.47;45.87
55317;BME280;41178;48.956;8.130;2024-02-23T01:38:25;98181.06;;;8.64;44.76
55317;BME280;41178;48.956;8.130;2024-02-23T01:43:32;98056.34;;;8.66;45.43
55317;BME280;41178;48.956;8.130;2024-02-23T01:48:34;97970.34;;;9.03;44.88
55317;BME280;41178;48.956;8.130;2024-02-23T01:53:36;98084.19;;;8.71;44.54
55317;BME280;41178;48.956;8.130;2024-02-23T01:58:38;97981.31;;;9.38;43.73
55317;BME280;41178;48.956;8.130;2024-02-23T02:03:40;98156.34;;;8.37;44.62
55317;BME280;41178;48.956;8.130;2024-02-23T02:08:42;98035.97;;;9.11;44.14
55317;BME280;41178;48.956;8.130;2024-02-23T02:13:44;98130.00;;;8.61;44.05
55317;BME280;41178;48.956;8.130;2024-02-23T02:18:46;98192.47;;;7.93;44.84
55317;BME280;41178;48.956;8.130;2024-02-23T02:23:47;98160.47;;;8.26;44.39
55317;BME280;41178;48.956;8.130;2024-02-23T02:28:49;98089.38;;;8.14;44.70
55317;BME280;41178;48.956;8.130;2024-02-23T02:33:51;98000.28;;;8.41;44.88
55317;BME280;41178;48.956;8.130;2024-02-23T02:38:52;97920.56;;;9.15;43.68
55317;BME280;41178;48.956;8.130;2024-02-23T02:43:54;97993.50;;;8.77;44.12
55317;BME280;41178;48.956;8.130;2024-02-23T02:48:56;98063.78;;;8.06;44.58
55317;BME280;41178;48.956;8.130;2024-02-23T02:53:58;98230.09;;;7.43;44.38
55317;BME280;41178;48.956;8.130;2024-02-23T02:58:59;98108.41;;;8.24;43.64
55317;BME280;41178;48.956;8.130;2024-02-23T03:04:01;98023.63;;;8.53;43.08
55317;BME280;41178;48.956;8.130;2024-02-23T03:09:03;98055.59;;;8.53;42.95
55317;BME280;41178;48.956;8.130;2024-02-23T03:14:04;98161.53;;;7.72;43.17
55317;BME280;41178;48.956;8.130;2024-02-23T03:19:06;98194.28;;;7.59;43.25
55317;BME280;41178;48.956;8.130;2024-02-23T03:24:09;98033.81;;;9.19;41.45
55317;BME280;41178;48.956;8.130;2024-02-23T03:29:11;98055.00;;;7.99;43.15
55317;BME280;41178;48.956;8.130;2024-02-23T03:34:13;98173.00;;;7.59;43.08
55317;BME280;41178;48.956;8.130;2024-02-23T03:39:15;98203.13;;;7.66;42.28
55317;BME280;41178;48.956;8.130;2024-02-23T03:44:17;98022.88;;;8.71;41.75
55317;BME280;41178;48.956;8.130;2024-02-23T03:49:18;98139.44;;;7.91;42.36
55317;BME280;41178;48.956;8.130;2024-02-23T03:54:20;98137.00;;;9.00;40.52
55317;BME280;41178;48.956;8.130;2024-02-23T03:59:22;98089.31;;;9.11;40.89
55317;BME280;41178;48.956;8.130;2024-02-23T04:04:24;98090.88;;;8.48;41.77
55317;BME280;41178;48.956;8.130;2024-02-23T04:09:25;98020.13;;;9.59;40.15
55317;BME280;41178;48.956;8.130;2024-02-23T04:14:27;98061.91;;;9.98;39.47
55317;BME280;41178;48.956;8.130;2024-02-23T04:19:29;97990.75;;;9.16;41.66
55317;BME280;41178;48.956;8.130;2024-02-23T04:24:31;97998.38;;;9.56;40.64
55317;BME280;41178;48.956;8.130;2024-02-23T04:29:33;97927.78;;;8.33;42.80
55317;BME280;41178;48.956;8.130;2024-02-23T04:34:35;97910.91;;;9.70;41.24
55317;BME280;41178;48.956;8.130;2024-02-23T04:39:37;97952.19;;;9.37;41.17
55317;BME280;41178;48.956;8.130;2024-02-23T04:44:42;98046.34;;;8.55;41.91
55317;BME280;41178;48.956;8.130;2024-02-23T04:49:44;98166.31;;;8.55;41.25
55317;BME280;41178;48.956;8.130;2024-02-23T04:54:46;97996.53;;;9.56;40.71
55317;BME280;41178;48.956;8.130;2024-02-23T04:59:48;98008.13;;;8.68;42.34
55317;BME280;41178;48.956;8.130;2024-02-23T05:04:49;97982.97;;;9.14;41.25
55317;BME280;41178;48.956;8.130;2024-02-23T05:09:51;98072.97;;;8.62;41.52
55317;BME280;41178;48.956;8.130;2024-02-23T05:14:53;98187.75;;;8.15;41.43
55317;BME280;41178;48.956;8.130;2024-02-23T05:19:55;98020.94;;;8.91;41.27
55317;BME280;41178;48.956;8.130;2024-02-23T05:24:56;98074.75;;;8.36;41.63
55317;BME280;41178;48.956;8.130;2024-02-23T05:29:58;97910.59;;;9.04;41.42
55317;BME280;41178;48.956;8.130;2024-02-23T05:34:59;97912.75;;;8.38;41.92
55317;BME280;41178;48.956;8.130;2024-02-23T05:40:01;97997.72;;;8.60;40.89
55317;BME280;41178;48.956;8.130;2024-02-23T05:45:08;98010.28;;;8.84;40.23
55317;BME280;41178;48.956;8.130;2024-02-23T05:50:10;97912.13;;;8.68;40.73
55317;BME280;41178;48.956;8.130;2024-02-23T05:55:12;98165.47;;;6.81;41.92
55317;BME280;41178;48.956;8.130;2024-02-23T06:00:15;98073.72;;;6.43;42.65
55317;BME280;41178;48.956;8.130;2024-02-23T06:05:20;97971.69;;;7.65;41.63
55317;BME280;41178;48.956;8.130;2024-02-23T06:12:36;97980.78;;;8.09;40.73
55317;BME280;41178;48.956;8.130;2024-02-23T06:17:37;97863.38;;;8.36;41.60
55317;BME280;41178;48.956;8.130;2024-02-23T06:22:41;97931.63;;;7.46;41.94
55317;BME280;41178;48.956;8.130;2024-02-23T06:27:42;98021.03;;;7.67;41.64
55317;BME280;41178;48.956;8.130;2024-02-23T06:32:44;97933.44;;;8.11;41.86
55317;BME280;41178;48.956;8.130;2024-02-23T06:37:47;97944.59;;;7.09;44.14
55317;BME280;41178;48.956;8.130;2024-02-23T06:42:49;97842.16;;;8.47;42.86
55317;BME280;41178;48.956;8.130;2024-02-23T06:47:51;97850.44;;;8.39;43.19
55317;BME280;41178;48.956;8.130;2024-02-23T06:52:53;97856.97;;;8.11;43.77
55317;BME280;41178;48.956;8.130;2024-02-23T06:57:56;97993.00;;;7.65;43.87
55317;BME280;41178;48.956;8.130;2024-02-23T07:02:57;98072.28;;;7.36;44.00
55317;BME280;41178;48.956;8.130;2024-02-23T07:08:05;97888.94;;;8.11;43.46
55317;BME280;41178;48.956;8.130;2024-02-23T07:13:07;97888.50;;;7.24;45.84
55317;BME280;41178;48.956;8.130;2024-02-23T07:18:09;97951.78;;;6.95;45.96
55317;BME280;41178;48.956;8.130;2024-02-23T07:23:11;97901.25;;;6.89;46.28
55317;BME280;41178;48.956;8.130;2024-02-23T07:28:12;98122.63;;;6.14;46.20
55317;BME280;41178;48.956;8.130;2024-02-23T07:33:14;97894.56;;;8.03;44.55
55317;BME280;41178;48.956;8.130;2024-02-23T07:38:16;97928.81;;;6.74;47.01
55317;BME280;41178;48.956;8.130;2024-02-23T07:43:19;97914.72;;;6.74;46.98
55317;BME280;41178;48.956;8.130;2024-02-23T07:48:21;97888.50;;;8.46;43.96
55317;BME280;41178;48.956;8.130;2024-02-23T07:53:23;97987.91;;;6.63;46.66
55317;BME280;41178;48.956;8.130;2024-02-23T07:58:25;97926.84;;;7.68;45.43
55317;BME280;41178;48.956;8.130;2024-02-23T08:03:29;97990.16;;;7.60;45.07
55317;BME280;41178;48.956;8.130;2024-02-23T08:08:31;98037.59;;;6.62;46.39
55317;BME280;41178;48.956;8.130;2024-02-23T08:13:36;97813.97;;;8.33;44.72
55317;BME280;41178;48.956;8.130;2024-02-23T08:18:38;97966.88;;;7.15;45.65
55317;BME280;41178;48.956;8.130;2024-02-23T08:23:40;97959.63;;;8.21;44.27
55317;BME280;41178;48.956;8.130;2024-02-23T08:28:41;97922.22;;;8.02;44.06
55317;BME280;41178;48.956;8.130;2024-02-23T08:33:43;97998.75;;;7.48;44.71
55317;BME280;41178;48.956;8.130;2024-02-23T08:38:45;97908.91;;;7.44;45.20
55317;BME280;41178;48.956;8.130;2024-02-23T08:43:46;97996.81;;;7.96;43.26
55317;BME280;41178;48.956;8.130;2024-02-23T08:48:48;98049.13;;;7.50;43.59
55317;BME280;41178;48.956;8.130;2024-02-23T08:53:50;97856.09;;;9.18;42.14
55317;BME280;41178;48.956;8.130;2024-02-23T08:58:52;97933.34;;;8.88;42.14
55317;BME280;41178;48.956;8.130;2024-02-23T09:03:54;98138.75;;;8.16;42.25
55317;BME280;41178;48.956;8.130;2024-02-23T09:08:56;98056.31;;;7.49;43.32
55317;BME280;41178;48.956;8.130;2024-02-23T09:13:58;98097.84;;;7.90;42.74
55317;BME280;41178;48.956;8.130;2024-02-23T09:18:59;97865.38;;;10.25;41.10
55317;BME280;41178;48.956;8.130;2024-02-23T09:24:01;97992.13;;;7.84;43.77
55317;BME280;41178;48.956;8.130;2024-02-23T09:29:03;97998.69;;;7.82;43.92
55317;BME280;41178;48.956;8.130;2024-02-23T09:34:05;98036.16;;;8.77;42.19
55317;BME280;41178;48.956;8.130;2024-02-23T09:39:06;97876.69;;;9.11;42.83
55317;BME280;41178;48.956;8.130;2024-02-23T09:44:08;97796.53;;;9.18;43.15
55317;BME280;41178;48.956;8.130;2024-02-23T09:49:11;97868.72;;;10.09;40.68
55317;BME280;41178;48.956;8.130;2024-02-23T09:54:15;97835.31;;;10.30;40.97
55317;BME280;41178;48.956;8.130;2024-02-23T09:59:20;97913.66;;;10.00;40.82
55317;BME280;41178;48.956;8.130;2024-02-23T10:04:23;97941.50;;;10.53;40.51
55317;BME280;41178;48.956;8.130;2024-02-23T10:09:27;97935.69;;;9.95;41.38
55317;BME280;41178;48.956;8.130;2024-02-23T10:14:29;97923.03;;;9.72;41.21
55317;BME280;41178;48.956;8.130;2024-02-23T10:19:30;97960.63;;;9.52;41.56
55317;BME280;41178;48.956;8.130;2024-02-23T10:24:32;97886.88;;;9.88;41.74
55317;BME280;41178;48.956;8.130;2024-02-23T10:29:34;97996.03;;;10.52;40.24
55317;BME280;41178;48.956;8.130;2024-02-23T10:34:36;97954.94;;;10.35;40.37
55317;BME280;41178;48.956;8.130;2024-02-23T10:39:45;97957.59;;;9.67;41.18
55317;BME280;41178;48.956;8.130;2024-02-23T10:44:47;97898.81;;;10.04;40.91
55317;BME280;41178;48.956;8.130;2024-02-23T10:49:48;97918.00;;;10.55;40.67
55317;BME280;41178;48.956;8.130;2024-02-23T10:54:50;97803.91;;;11.49;40.89
55317;BME280;41178;48.956;8.130;2024-02-23T10:59:53;97941.72;;;10.51;41.20
55317;BME280;41178;48.956;8.130;2024-02-23T13:11:07;97788.38;;;8.32;44.05
55317;BME280;41178;48.956;8.130;2024-02-23T13:16:10;97714.88;;;9.89;41.49
55317;BME280;41178;48.956;8.130;2024-02-23T13:21:11;97914.34;;;9.03;41.79
55317;BME280;41178;48.956;8.130;2024-02-23T13:26:13;97815.03;;;9.50;41.20
55317;BME280;41178;48.956;8.130;2024-02-23T13:31:16;97826.94;;;10.38;40.00
55317;BME280;41178;48.956;8.130;2024-02-23T13:36:18;97962.22;;;10.27;38.79
55317;BME280;41178;48.956;8.130;2024-02-23T13:41:20;98054.34;;;8.94;40.02
55317;BME280;41178;48.956;8.130;2024-02-23T13:46:22;97799.53;;;10.43;39.66
55317;BME280;41178;48.956;8.130;2024-02-23T13:51:23;97841.16;;;10.62;38.47
55317;BME280;41178;48.956;8.130;2024-02-23T13:56:25;97866.72;;;11.81;37.09
55317;BME280;41178;48.956;8.130;2024-02-23T14:01:29;97977.78;;;11.15;37.89
55317;BME280;41178;48.956;8.130;2024-02-23T14:06:30;97930.38;;;10.80;40.74
55317;BME280;41178;48.956;8.130;2024-02-23T14:11:32;97949.28;;;11.96;38.90
55317;BME280;41178;48.956;8.130;2024-02-23T14:16:34;97954.19;;;12.57;37.06
55317;BME280;41178;48.956;8.130;2024-02-23T14:21:36;98037.31;;;12.28;37.41
55317;BME280;41178;48.956;8.130;2024-02-23T14:26:38;97973.06;;;12.96;36.45
55317;BME280;41178;48.956;8.130;2024-02-23T14:31:40;97949.63;;;12.58;35.80
55317;BME280;41178;48.956;8.130;2024-02-23T14:36:42;97941.03;;;12.89;35.40
55317;BME280;41178;48.956;8.130;2024-02-23T14:41:45;97869.25;;;13.02;35.78
55317;BME280;41178;48.956;8.130;2024-02-23T14:46:47;98072.25;;;11.03;35.84
55317;BME280;41178;48.956;8.130;2024-02-23T14:51:49;97894.94;;;11.72;36.27
55317;BME280;41178;48.956;8.130;2024-02-23T14:56:50;97990.72;;;12.17;35.91
55317;BME280;41178;48.956;8.130;2024-02-23T15:01:52;97906.88;;;11.93;35.92
55317;BME280;41178;48.956;8.130;2024-02-23T15:06:54;97886.19;;;12.51;34.90
55317;BME280;41178;48.956;8.130;2024-02-23T15:11:56;97985.25;;;12.12;35.21
55317;BME280;41178;48.956;8.130;2024-02-23T15:16:58;97840.22;;;13.21;34.75
55317;BME280;41178;48.956;8.130;2024-02-23T15:21:59;97840.34;;;13.09;34.90
55317;BME280;41178;48.956;8.130;2024-02-23T15:27:01;97855.97;;;11.53;36.06
55317;BME280;41178;48.956;8.130;2024-02-23T15:32:03;97917.78;;;12.32;35.15
55317;BME280;41178;48.956;8.130;2024-02-23T15:37:05;97857.47;;;12.35;35.34
55317;BME280;41178;48.956;8.130;2024-02-23T15:42:09;97878.53;;;11.69;35.40
55317;BME280;41178;48.956;8.130;2024-02-23T15:47:11;97810.66;;;12.43;34.94
55317;BME280;41178;48.956;8.130;2024-02-23T15:52:12;97903.59;;;13.00;34.12
55317;BME280;41178;48.956;8.130;2024-02-23T15:57:14;97843.22;;;13.91;33.21
55317;BME280;41178;48.956;8.130;2024-02-23T16:02:16;97884.56;;;12.33;34.22
55317;BME280;41178;48.956;8.130;2024-02-23T16:07:18;97896.56;;;12.31;35.06
55317;BME280;41178;48.956;8.130;2024-02-23T16:12:19;97855.56;;;12.02;34.37
55317;BME280;41178;48.956;8.130;2024-02-23T16:17:22;97878.06;;;13.19;34.15
55317;BME280;41178;48.956;8.130;2024-02-23T16:22:23;97807.22;;;14.19;33.58
55317;BME280;41178;48.956;8.130;2024-02-23T16:27:25;97800.34;;;12.17;35.09
55317;BME280;41178;48.956;8.130;2024-02-23T16:32:27;97914.78;;;12.00;33.89
55317;BME280;41178;48.956;8.130;2024-02-23T16:37:29;97809.31;;;11.94;35.07
55317;BME280;41178;48.956;8.130;2024-02-23T16:42:31;97934.97;;;14.21;32.43
55317;BME280;41178;48.956;8.130;2024-02-23T16:47:32;97795.38;;;12.60;34.80
55317;BME280;41178;48.956;8.130;2024-02-23T16:52:34;97877.25;;;12.80;33.79
55317;BME280;41178;48.956;8.130;2024-02-23T16:57:36;97953.91;;;11.49;35.11
55317;BME280;41178;48.956;8.130;2024-02-23T17:02:38;97843.84;;;12.70;33.90
55317;BME280;41178;48.956;8.130;2024-02-23T17:07:40;97777.81;;;13.85;33.58
55317;BME280;41178;48.956;8.130;2024-02-23T17:12:43;97795.25;;;14.80;33.23
55317;BME280;41178;48.956;8.130;2024-02-23T17:17:49;97915.13;;;14.55;32.66
55317;BME280;41178;48.956;8.130;2024-02-23T17:22:51;97924.25;;;13.55;33.80
55317;BME280;41178;48.956;8.130;2024-02-23T17:27:53;97781.09;;;13.38;34.70
55317;BME280;41178;48.956;8.130;2024-02-23T17:32:55;97903.94;;;12.86;34.57
55317;BME280;41178;48.956;8.130;2024-02-23T17:37:57;97878.03;;;12.97;34.60
55317;BME280;41178;48.956;8.130;2024-02-23T17:42:59;97770.22;;;13.27;34.84
55317;BME280;41178;48.956;8.130;2024-02-23T17:48:00;97866.97;;;12.26;35.03
55317;BME280;41178;48.956;8.130;2024-02-23T17:53:03;97781.97;;;12.26;35.52
55317;BME280;41178;48.956;8.130;2024-02-23T17:58:05;97824.09;;;10.87;36.48
55317;BME280;41178;48.956;8.130;2024-02-23T18:03:20;97826.59;;;10.35;37.21
55317;BME280;41178;48.956;8.130;2024-02-23T18:08:21;97715.44;;;11.43;36.88
55317;BME280;41178;48.956;8.130;2024-02-23T18:13:23;97751.72;;;12.87;34.89
55317;BME280;41178;48.956;8.130;2024-02-23T18:18:25;97806.59;;;12.23;35.08
55317;BME280;41178;48.956;8.130;2024-02-23T18:23:28;97852.28;;;12.45;34.82
55317;BME280;41178;48.956;8.130;2024-02-23T18:28:30;97806.69;;;13.01;34.22
55317;BME280;41178;48.956;8.130;2024-02-23T18:33:33;97812.75;;;13.14;34.43
55317;BME280;41178;48.956;8.130;2024-02-23T18:38:35;97826.91;;;12.02;36.24
55317;BME280;41178;48.956;8.130;2024-02-23T18:43:38;97835.22;;;11.60;35.88
55317;BME280;41178;48.956;8.130;2024-02-23T18:48:45;97734.03;;;11.21;36.64
55317;BME280;41178;48.956;8.130;2024-02-23T18:53:48;97762.47;;;12.31;35.51
55317;BME280;41178;48.956;8.130;2024-02-23T18:58:50;97750.69;;;10.47;37.40
55317;BME280;41178;48.956;8.130;2024-02-23T19:03:52;97763.25;;;11.63;36.07
55317;BME280;41178;48.956;8.130;2024-02-23T19:08:54;97819.78;;;10.86;36.23
55317;BME280;41178;48.956;8.130;2024-02-23T19:13:56;97650.50;;;12.60;35.21
55317;BME280;41178;48.956;8.130;2024-02-23T19:18:59;97711.72;;;12.46;35.87
55317;BME280;41178;48.956;8.130;2024-02-23T19:24:04;97854.34;;;9.61;37.89
55317;BME280;41178;48.956;8.130;2024-02-23T19:29:05;97710.34;;;12.05;35.93
55317;BME280;41178;48.956;8.130;2024-02-23T19:34:07;97753.16;;;11.13;36.60
55317;BME280;41178;48.956;8.130;2024-02-23T19:39:09;97856.16;;;9.79;38.34
55317;BME280;41178;48.956;8.130;2024-02-23T19:44:13;97643.50;;;11.18;37.46
55317;BME280;41178;48.956;8.130;2024-02-23T19:49:15;97659.66;;;12.03;36.46
55317;BME280;41178;48.956;8.130;2024-02-23T19:54:18;97677.00;;;10.40;38.92
55317;BME280;41178;48.956;8.130;2024-02-23T19:59:20;97587.84;;;10.34;40.00
55317;BME280;41178;48.956;8.130;2024-02-23T20:04:21;97658.25;;;11.50;37.95
55317;BME280;41178;48.956;8.130;2024-02-23T20:09:23;97640.47;;;10.98;38.75
55317;BME280;41178;48.956;8.130;2024-02-23T20:14:27;97619.00;;;12.11;37.48
55317;BME280;41178;48.956;8.130;2024-02-23T20:19:29;97675.91;;;12.52;36.87
55317;BME280;41178;48.956;8.130;2024-02-23T20:24:30;97797.56;;;13.24;35.29
55317;BME280;41178;48.956;8.130;2024-02-23T20:29:32;97658.97;;;12.13;37.48
55317;BME280;41178;48.956;8.130;2024-02-23T20:34:37;97718.41;;;13.05;35.74
55317;BME280;41178;48.956;8.130;2024-02-23T20:39:40;97697.03;;;13.37;35.28
55317;BME280;41178;48.956;8.130;2024-02-23T20:44:42;97705.56;;;14.26;34.51
55317;BME280;41178;48.956;8.130;2024-02-23T20:49:44;97852.41;;;12.05;36.58
55317;BME280;41178;48.956;8.130;2024-02-23T20:54:48;97702.75;;;12.35;36.71
55317;BME280;41178;48.956;8.130;2024-02-23T20:59:50;97713.91;;;12.88;36.04
55317;BME280;41178;48.956;8.130;2024-02-23T21:04:52;97733.13;;;13.46;35.08
55317;BME280;41178;48.956;8.130;2024-02-23T21:09:55;97841.94;;;13.49;34.83
55317;BME280;41178;48.956;8.130;2024-02-23T21:14:57;97848.66;;;12.51;36.26
55317;BME280;41178;48.956;8.130;2024-02-23T21:19:59;97701.69;;;12.19;36.59
55317;BME280;41178;48.956;8.130;2024-02-23T21:25:01;97734.19;;;11.72;37.32
55317;BME280;41178;48.956;8.130;2024-02-23T21:30:04;97759.78;;;11.22;38.13
55317;BME280;41178;48.956;8.130;2024-02-23T21:35:08;97817.75;;;10.34;38.78
55317;BME280;41178;48.956;8.130;2024-02-23T21:40:10;97661.53;;;10.30;39.67
55317;BME280;41178;48.956;8.130;2024-02-23T21:45:12;97608.47;;;10.10;40.24
55317;BME280;41178;48.956;8.130;2024-02-23T21:50:14;97627.13;;;10.33;40.24
55317;BME280;41178;48.956;8.130;2024-02-23T21:55:16;97673.00;;;9.71;41.08
55317;BME280;41178;48.956;8.130;2024-02-23T22:00:18;97677.59;;;7.99;43.36
55317;BME280;41178;48.956;8.130;2024-02-23T22:05:20;97599.91;;;9.18;42.43
55317;BME280;41178;48.956;8.130;2024-02-23T22:10:22;97688.59;;;8.83;42.27
55317;BME280;41178;48.956;8.130;2024-02-23T22:15:24;97634.88;;;9.40;42.23
55317;BME280;41178;48.956;8.130;2024-02-23T22:20:25;97651.06;;;9.15;41.93
55317;BME280;41178;48.956;8.130;2024-02-23T22:25:27;97762.97;;;9.29;41.25
55317;BME280;41178;48.956;8.130;2024-02-23T22:30:29;97716.34;;;9.43;41.48
55317;BME280;41178;48.956;8.130;2024-02-23T22:35:31;97608.28;;;8.24;43.97
55317;BME280;41178;48.956;8.130;2024-02-23T22:40:32;97605.41;;;9.47;42.34
55317;BME280;41178;48.956;8.130;2024-02-23T22:45:34;97665.41;;;10.63;40.08
55317;BME280;41178;48.956;8.130;2024-02-23T22:50:36;97687.41;;;8.42;43.11
55317;BME280;41178;48.956;8.130;2024-02-23T22:55:39;97667.03;;;8.85;42.81
55317;BME280;41178;48.956;8.130;2024-02-23T23:00:41;97683.41;;;8.33;43.53
55317;BME280;41178;48.956;8.130;2024-02-23T23:05:44;97564.69;;;9.87;41.87
55317;BME280;41178;48.956;8.130;2024-02-23T23:10:46;97584.06;;;9.71;42.06
55317;BME280;41178;48.956;8.130;2024-02-23T23:15:48;97598.28;;;9.17;42.84
55317;BME280;41178;48.956;8.130;2024-02-23T23:20:49;97539.06;;;7.37;46.52
55317;BME280;41178;48.956;8.130;2024-02-23T23:25:51;97467.41;;;8.58;45.30
55317;BME280;41178;48.956;8.130;2024-02-23T23:30:53;97586.91;;;7.44;46.79
55317;BME280;41178;48.956;8.130;2024-02-23T23:35:55;97632.44;;;7.29;46.65
55317;BME280;41178;48.956;8.130;2024-02-23T23:40:57;97457.28;;;9.02;44.88
55317;BME280;41178;48.956;8.130;2024-02-23T23:45:58;97534.13;;;8.03;46.15
55317;BME280;41178;48.956;8.130;2024-02-23T23:51:00;97654.91;;;7.65;45.83
55317;BME280;41178;48.956;8.130;2024-02-23T23:56:02;97586.94;;;7.37;47.26
